createdAt,value
2024-02-26T00:51:21.511Z,1.57
2024-02-26T00:53:50.798Z,1.63
2024-02-26T00:56:17.529Z,1.60
2024-02-26T00:58:44.511Z,1.83
2024-02-26T01:01:11.411Z,1.47
2024-02-26T01:03:38.442Z,1.73
2024-02-26T01:06:05.301Z,1.70
2024-02-26T01:08:32.722Z,1.60
2024-02-26T01:10:59.613Z,1.43
2024-02-26T01:13:26.352Z,1.40
2024-02-26T01:15:53.148Z,1.50
2024-02-26T01:18:20.027Z,1.43
2024-02-26T01:20:46.828Z,1.70
2024-02-26T01:23:14.043Z,1.60
2024-02-26T01:25:40.696Z,1.80
2024-02-26T01:28:07.460Z,1.63
2024-02-26T01:30:34.318Z,1.50
2024-02-26T01:33:01.257Z,1.40
2024-02-26T01:35:28.231Z,1.63
2024-02-26T01:37:54.967Z,1.57
2024-02-26T01:40:21.636Z,1.50
2024-02-26T01:42:49.590Z,1.67
2024-02-26T01:45:22.830Z,1.40
2024-02-26T01:47:55.007Z,1.40
2024-02-26T01:50:23.217Z,1.43
2024-02-26T01:52:51.452Z,1.70
2024-02-26T01:55:19.757Z,1.60
2024-02-26T01:57:50.152Z,1.40
2024-02-26T02:00:19.580Z,1.53
2024-02-26T02:02:49.251Z,1.40
2024-02-26T02:05:20.600Z,1.30
2024-02-26T02:07:49.379Z,1.60
2024-02-26T02:10:17.307Z,1.77
2024-02-26T02:12:44.903Z,1.60
2024-02-26T02:15:11.936Z,1.70
2024-02-26T02:17:38.798Z,1.50
2024-02-26T02:20:21.184Z,1.30
2024-02-26T02:22:48.106Z,1.30
2024-02-26T02:25:15.118Z,1.37
2024-02-26T02:27:43.404Z,1.47
2024-02-26T02:30:11.670Z,1.70
2024-02-26T02:32:40.872Z,1.40
2024-02-26T02:35:08.311Z,1.30
2024-02-26T02:37:35.436Z,1.30
2024-02-26T02:40:02.176Z,1.57
2024-02-26T02:42:29.013Z,1.37
2024-02-26T02:44:56.006Z,1.63
2024-02-26T02:47:22.778Z,1.40
2024-02-26T02:49:49.645Z,1.43
2024-02-26T02:52:16.544Z,1.30
2024-02-26T02:54:43.451Z,1.50
2024-02-26T02:57:10.866Z,1.60
2024-02-26T02:59:38.406Z,1.70
2024-02-26T03:02:06.091Z,1.80
2024-02-26T03:04:33.168Z,1.50
2024-02-26T03:07:01.407Z,1.40
2024-02-26T03:09:28.629Z,1.70
2024-02-26T03:11:55.548Z,1.80
2024-02-26T03:14:22.446Z,1.50
2024-02-26T03:16:49.252Z,1.80
2024-02-26T03:19:20.100Z,1.63
2024-02-26T03:21:47.033Z,1.80
2024-02-26T03:24:13.728Z,2.03
2024-02-26T03:26:40.586Z,2.10
2024-02-26T03:29:07.323Z,2.17
2024-02-26T03:31:34.130Z,1.83
2024-02-26T03:34:01.052Z,1.90
2024-02-26T03:36:27.978Z,2.10
2024-02-26T03:38:54.934Z,2.10
2024-02-26T03:41:21.719Z,1.90
2024-02-26T03:43:48.502Z,2.40
2024-02-26T03:46:15.453Z,2.33
2024-02-26T03:48:42.946Z,2.27
2024-02-26T03:51:11.703Z,1.83
2024-02-26T03:53:38.582Z,2.10
2024-02-26T03:56:06.314Z,2.33
2024-02-26T03:58:33.292Z,2.33
2024-02-26T04:01:01.895Z,2.07
2024-02-26T04:03:28.737Z,2.00
2024-02-26T04:05:55.751Z,2.10
2024-02-26T04:08:22.669Z,2.00
2024-02-26T04:10:49.626Z,1.90
2024-02-26T04:13:16.491Z,2.20
2024-02-26T04:15:43.217Z,2.20
2024-02-26T04:18:10.126Z,2.50
2024-02-26T04:20:36.958Z,2.50
2024-02-26T04:23:04.655Z,2.00
2024-02-26T04:25:31.479Z,2.30
2024-02-26T04:27:58.206Z,2.33
2024-02-26T04:30:25.215Z,2.03
2024-02-26T04:32:52.531Z,2.40
2024-02-26T04:35:19.500Z,2.43
2024-02-26T04:37:46.420Z,2.40
2024-02-26T04:40:13.405Z,2.43
2024-02-26T04:42:40.256Z,2.27
2024-02-26T04:45:09.298Z,2.30
2024-02-26T04:47:36.091Z,2.23
2024-02-26T04:50:03.093Z,2.30
2024-02-26T04:52:29.872Z,1.87
2024-02-26T04:54:56.617Z,2.37
2024-02-26T04:57:23.714Z,2.10
2024-02-26T04:59:50.599Z,2.17
2024-02-26T05:02:17.475Z,2.30
2024-02-26T05:04:44.616Z,2.57
2024-02-26T05:07:11.410Z,2.10
2024-02-26T05:09:38.090Z,2.03
2024-02-26T05:12:05.692Z,2.80
2024-02-26T05:14:32.424Z,2.57
2024-02-26T05:16:59.392Z,2.30
2024-02-26T05:19:27.643Z,2.30
2024-02-26T05:21:54.364Z,2.50
2024-02-26T05:24:23.863Z,2.70
2024-02-26T05:26:50.779Z,2.50
2024-02-26T05:29:17.703Z,2.50
2024-02-26T05:31:44.566Z,3.07
2024-02-26T05:34:11.666Z,2.63
2024-02-26T05:36:38.714Z,2.60
2024-02-26T05:39:05.617Z,2.90
2024-02-26T05:41:32.452Z,2.47
2024-02-26T05:44:00.225Z,3.10
2024-02-26T05:46:28.068Z,2.80
2024-02-26T05:48:55.254Z,2.73
2024-02-26T05:51:22.734Z,2.83
2024-02-26T05:53:55.394Z,3.07
2024-02-26T05:56:25.901Z,2.90
2024-02-26T05:58:53.001Z,2.73
2024-02-26T06:01:21.378Z,2.90
2024-02-26T06:03:48.292Z,2.90
2024-02-26T06:06:16.376Z,3.07
2024-02-26T06:08:43.647Z,2.63
2024-02-26T06:11:10.462Z,2.90
2024-02-26T06:13:37.471Z,3.03
2024-02-26T06:16:04.509Z,3.37
2024-02-26T06:18:31.816Z,3.00
2024-02-26T06:20:58.677Z,3.00
2024-02-26T06:23:25.635Z,2.90
2024-02-26T06:25:52.598Z,2.87
2024-02-26T06:28:19.567Z,3.17
2024-02-26T06:30:47.224Z,3.30
2024-02-26T06:33:15.186Z,3.27
2024-02-26T06:35:42.793Z,3.20
2024-02-26T06:38:10.298Z,3.03
2024-02-26T06:40:37.126Z,3.00
2024-02-26T06:43:03.833Z,3.07
2024-02-26T06:45:30.777Z,3.30
2024-02-26T06:47:57.766Z,3.27
2024-02-26T06:50:24.494Z,3.27
2024-02-26T06:52:51.439Z,3.13
2024-02-26T06:55:18.178Z,3.20
2024-02-26T06:57:45.030Z,3.10
2024-02-26T07:00:16.056Z,3.13
2024-02-26T07:02:44.102Z,3.10
2024-02-26T07:05:11.312Z,3.03
2024-02-26T07:07:38.133Z,3.17
2024-02-26T07:10:06.888Z,3.23
2024-02-26T07:12:33.983Z,3.10
2024-02-26T07:15:01.795Z,3.60
2024-02-26T07:17:28.684Z,3.17
2024-02-26T07:19:59.704Z,2.83
2024-02-26T07:22:26.657Z,3.00
2024-02-26T07:24:53.485Z,3.60
2024-02-26T07:27:22.205Z,3.40
2024-02-26T07:29:49.181Z,3.27
2024-02-26T07:32:16.714Z,3.10
2024-02-26T07:34:45.821Z,2.60
2024-02-26T07:37:13.050Z,3.30
2024-02-26T07:39:39.861Z,3.20
2024-02-26T07:42:07.345Z,2.97
2024-02-26T07:44:34.738Z,2.90
2024-02-26T07:47:01.664Z,3.20
2024-02-26T07:49:28.484Z,3.50
2024-02-26T07:51:55.839Z,3.00
2024-02-26T07:54:22.677Z,3.10
2024-02-26T07:56:49.889Z,3.23
2024-02-26T07:59:16.671Z,3.07
2024-02-26T08:01:45.769Z,4.17
2024-02-26T08:04:13.405Z,3.63
2024-02-26T08:06:40.202Z,5.97
2024-02-26T08:09:07.931Z,3.57
2024-02-26T08:11:34.914Z,2.93
2024-02-26T08:14:01.903Z,3.27
2024-02-26T08:16:28.939Z,3.20
2024-02-26T08:18:56.957Z,2.87
2024-02-26T08:21:23.761Z,3.20
2024-02-26T08:23:51.053Z,3.33
2024-02-26T08:26:17.782Z,3.20
2024-02-26T08:28:48.624Z,3.10
2024-02-26T08:31:16.764Z,3.27
2024-02-26T08:33:43.558Z,3.70
2024-02-26T08:36:13.677Z,3.63
2024-02-26T08:38:40.512Z,3.47
2024-02-26T08:41:07.285Z,3.40
2024-02-26T08:43:36.916Z,3.40
2024-02-26T08:46:04.613Z,3.30
2024-02-26T08:48:31.569Z,3.20
2024-02-26T08:50:58.603Z,3.80
2024-02-26T08:53:35.007Z,3.30
2024-02-26T08:56:08.964Z,3.60
2024-02-26T08:58:36.979Z,3.30
2024-02-26T09:01:04.264Z,3.30
2024-02-26T09:03:34.012Z,3.60
2024-02-26T09:06:01.198Z,3.67
2024-02-26T09:08:28.006Z,3.40
2024-02-26T09:10:54.761Z,3.03
2024-02-26T09:13:21.567Z,3.10
2024-02-26T09:15:48.434Z,3.40
2024-02-26T09:18:16.140Z,3.20
2024-02-26T09:20:43.464Z,3.40
2024-02-26T09:23:10.722Z,3.87
2024-02-26T09:25:43.141Z,3.80
2024-02-26T09:28:10.112Z,3.80
2024-02-26T09:30:36.827Z,4.07
2024-02-26T09:33:04.058Z,4.37
2024-02-26T09:35:31.612Z,3.90
2024-02-26T09:37:58.601Z,3.90
2024-02-26T09:40:25.484Z,4.10
2024-02-26T09:43:00.097Z,4.00
2024-02-26T09:45:29.257Z,4.33
2024-02-26T09:47:57.353Z,4.20
2024-02-26T09:50:24.793Z,3.40
2024-02-26T09:52:53.372Z,4.10
2024-02-26T09:55:20.727Z,4.23
2024-02-26T09:57:50.102Z,4.47
2024-02-26T10:00:21.630Z,4.63
2024-02-26T10:02:49.484Z,4.30
2024-02-26T10:05:20.193Z,4.10
2024-02-26T10:07:49.934Z,4.50
2024-02-26T10:10:18.780Z,4.57
2024-02-26T10:12:45.562Z,4.30
2024-02-26T10:15:12.546Z,4.70
2024-02-26T10:17:40.437Z,4.60
2024-02-26T10:20:19.400Z,4.60
2024-02-26T10:22:49.927Z,4.40
2024-02-26T10:25:16.682Z,4.63
2024-02-26T10:27:43.813Z,4.80
2024-02-26T10:30:24.604Z,4.73
2024-02-26T10:32:55.269Z,4.47
2024-02-26T10:35:22.411Z,4.37
2024-02-26T10:37:50.779Z,4.80
2024-02-26T10:40:18.090Z,5.10
2024-02-26T10:42:46.864Z,5.30
2024-02-26T10:45:13.856Z,4.93
2024-02-26T10:47:43.224Z,5.03
2024-02-26T10:50:11.030Z,5.17
2024-02-26T10:52:38.446Z,4.27
2024-02-26T10:55:10.166Z,4.53
2024-02-26T10:57:40.881Z,4.30
2024-02-26T11:00:16.530Z,5.10
2024-02-26T11:02:46.483Z,5.40
2024-02-26T11:05:14.242Z,5.00
2024-02-26T11:07:43.281Z,5.00
2024-02-26T11:10:12.435Z,5.07
2024-02-26T11:12:41.065Z,5.27
2024-02-26T11:15:08.915Z,4.93
2024-02-26T11:17:38.352Z,4.70
2024-02-26T11:20:06.680Z,5.13
2024-02-26T11:22:34.683Z,5.13
2024-02-26T11:25:02.060Z,5.47
2024-02-26T11:27:34.081Z,5.90
2024-02-26T11:30:03.346Z,5.33
2024-02-26T11:32:31.516Z,5.30
2024-02-26T11:34:59.988Z,4.90
2024-02-26T11:37:27.009Z,6.50
2024-02-26T11:39:54.234Z,5.33
2024-02-26T11:42:26.375Z,5.77
2024-02-26T11:44:53.553Z,6.50
2024-02-26T11:47:22.531Z,5.60
2024-02-26T11:49:50.225Z,6.07
2024-02-26T11:52:18.002Z,6.27
2024-02-26T11:54:49.990Z,5.80
2024-02-26T11:57:39.359Z,5.53
2024-02-26T12:00:23.787Z,5.60
2024-02-26T12:02:59.777Z,5.30
2024-02-26T12:05:29.481Z,5.77
2024-02-26T12:08:01.557Z,6.50
2024-02-26T12:10:35.060Z,5.83
2024-02-26T12:13:08.669Z,6.50
2024-02-26T12:15:38.704Z,6.53
2024-02-26T12:18:09.111Z,8.77
2024-02-26T12:20:36.222Z,7.20
2024-02-26T12:23:05.182Z,6.43
2024-02-26T12:25:32.637Z,6.43
2024-02-26T12:28:00.184Z,7.07
2024-02-26T12:30:30.710Z,6.40
2024-02-26T12:33:01.911Z,6.63
2024-02-26T12:35:30.188Z,8.03
2024-02-26T12:37:57.159Z,6.00
2024-02-26T12:40:24.283Z,6.27
2024-02-26T12:42:51.261Z,6.33
2024-02-26T12:45:18.135Z,6.83
2024-02-26T12:47:52.585Z,6.17
2024-02-26T12:50:19.564Z,6.30
2024-02-26T12:52:48.188Z,5.83
2024-02-26T12:55:19.500Z,6.17
2024-02-26T12:57:47.821Z,5.80
2024-02-26T13:00:18.103Z,5.57
2024-02-26T13:02:46.785Z,5.33
2024-02-26T13:05:15.383Z,5.80
2024-02-26T13:07:46.030Z,6.50
2024-02-26T13:10:12.948Z,6.00
2024-02-26T13:12:52.739Z,5.47
2024-02-26T13:15:21.877Z,6.27
2024-02-26T13:17:49.864Z,5.23
2024-02-26T13:20:33.079Z,5.30
2024-02-26T13:23:12.900Z,5.60
2024-02-26T13:25:43.990Z,5.50
2024-02-26T13:28:20.547Z,5.43
2024-02-26T13:30:58.911Z,5.80
2024-02-26T13:33:30.325Z,5.43
2024-02-26T13:36:01.627Z,5.10
2024-02-26T13:38:32.691Z,4.70
2024-02-26T13:40:59.494Z,4.80
2024-02-26T13:43:29.771Z,4.17
2024-02-26T13:45:56.594Z,4.80
2024-02-26T13:48:27.285Z,4.57
2024-02-26T13:50:57.847Z,4.17
2024-02-26T13:53:26.793Z,4.10
2024-02-26T13:55:53.850Z,4.40
2024-02-26T13:58:23.930Z,4.30
2024-02-26T14:00:51.180Z,4.00
2024-02-26T14:03:21.069Z,4.00
2024-02-26T14:05:48.706Z,3.97
2024-02-26T14:08:18.462Z,4.13
2024-02-26T14:10:45.516Z,4.37
2024-02-26T14:13:12.486Z,4.07
2024-02-26T14:15:40.496Z,4.07
2024-02-26T14:18:09.134Z,4.07
2024-02-26T14:20:36.059Z,4.20
2024-02-26T14:23:03.017Z,4.13
2024-02-26T14:25:31.446Z,3.50
2024-02-26T14:27:59.967Z,3.80
2024-02-26T14:30:27.825Z,3.80
2024-02-26T14:32:55.191Z,3.80
2024-02-26T14:35:22.170Z,3.47
2024-02-26T14:37:50.576Z,4.00
2024-02-26T14:40:17.752Z,3.97
2024-02-26T14:42:45.234Z,3.90
2024-02-26T14:45:12.936Z,3.87
2024-02-26T14:47:40.148Z,4.20
2024-02-26T14:50:07.597Z,4.20
2024-02-26T14:52:34.453Z,3.93
2024-02-26T14:55:01.306Z,3.73
2024-02-26T14:57:28.089Z,3.93
2024-02-26T14:59:54.991Z,4.30
2024-02-26T15:02:21.740Z,3.90
2024-02-26T15:04:49.595Z,3.87
2024-02-26T15:07:17.290Z,3.70
2024-02-26T15:09:44.585Z,3.90
2024-02-26T15:12:12.080Z,3.40
2024-02-26T15:14:39.900Z,4.13
2024-02-26T15:17:11.568Z,3.90
2024-02-26T15:19:38.638Z,3.87
2024-02-26T15:22:05.624Z,3.70
2024-02-26T15:24:32.410Z,4.23
2024-02-26T15:26:59.492Z,4.20
2024-02-26T15:29:27.895Z,3.40
2024-02-26T15:31:58.006Z,3.60
2024-02-26T15:34:24.945Z,3.30
2024-02-26T15:36:51.714Z,3.30
2024-02-26T15:39:18.821Z,3.97
2024-02-26T15:41:45.832Z,3.80
2024-02-26T15:44:12.789Z,3.80
2024-02-26T15:46:42.744Z,3.50
2024-02-26T15:49:12.101Z,3.70
2024-02-26T15:51:43.945Z,3.47
2024-02-26T15:54:11.201Z,3.83
2024-02-26T15:56:39.550Z,3.13
2024-02-26T15:59:06.561Z,3.33
2024-02-26T16:01:33.382Z,3.40
2024-02-26T16:04:00.304Z,3.40
2024-02-26T16:06:31.368Z,4.47
2024-02-26T16:08:58.476Z,4.20
2024-02-26T16:11:26.001Z,4.07
2024-02-26T16:14:20.429Z,4.20
2024-02-26T16:17:00.034Z,5.00
2024-02-26T16:19:29.211Z,5.30
2024-02-26T16:21:56.696Z,5.37
2024-02-26T16:24:23.945Z,5.97
2024-02-26T16:26:50.901Z,6.30
2024-02-26T16:29:17.572Z,6.27
2024-02-26T16:31:44.763Z,6.23
2024-02-26T16:34:11.890Z,6.63
2024-02-26T16:36:39.132Z,6.40
2024-02-26T16:39:06.054Z,5.67
2024-02-26T16:41:35.923Z,6.80
2024-02-26T16:44:03.418Z,5.77
2024-02-26T16:46:30.248Z,6.27
2024-02-26T16:48:57.241Z,6.70
2024-02-26T16:51:24.034Z,6.70
2024-02-26T16:53:51.007Z,6.67
2024-02-26T16:56:17.892Z,7.17
2024-02-26T16:58:44.587Z,7.10
2024-02-26T17:01:11.571Z,7.67
2024-02-26T17:03:41.455Z,7.20
2024-02-26T17:06:09.121Z,6.70
2024-02-26T17:08:36.981Z,6.80
2024-02-26T17:11:05.498Z,6.80
2024-02-26T17:13:32.311Z,6.17
2024-02-26T17:16:02.318Z,6.53
2024-02-26T17:18:29.254Z,6.93
2024-02-26T17:21:01.392Z,6.50
2024-02-26T17:23:28.266Z,6.23
2024-02-26T17:25:54.982Z,6.20
2024-02-26T17:28:21.679Z,6.67
2024-02-26T17:30:48.497Z,6.53
2024-02-26T17:33:15.321Z,6.70
2024-02-26T17:35:42.764Z,6.60
2024-02-26T17:38:09.824Z,6.27
2024-02-26T17:40:38.068Z,5.77
2024-02-26T17:43:08.129Z,6.30
2024-02-26T17:45:36.753Z,5.97
2024-02-26T17:48:04.890Z,5.53
2024-02-26T17:50:31.747Z,6.03
2024-02-26T17:52:58.470Z,6.00
2024-02-26T17:55:25.256Z,6.63
2024-02-26T17:57:52.003Z,6.07
2024-02-26T18:00:18.930Z,6.10
2024-02-26T18:02:45.875Z,5.83
2024-02-26T18:05:12.972Z,6.13
2024-02-26T18:07:39.866Z,5.70
2024-02-26T18:10:10.313Z,6.47
2024-02-26T18:12:39.597Z,6.17
2024-02-26T18:15:08.870Z,6.57
2024-02-26T18:17:35.878Z,5.87
2024-02-26T18:20:05.019Z,6.00
2024-02-26T18:22:32.435Z,5.80
2024-02-26T18:24:59.096Z,6.60
2024-02-26T18:27:27.998Z,6.93
2024-02-26T18:29:56.769Z,6.07
2024-02-26T18:32:23.522Z,6.63
2024-02-26T18:34:50.396Z,6.20
2024-02-26T18:37:17.197Z,7.00
2024-02-26T18:39:44.280Z,6.77
2024-02-26T18:42:12.957Z,6.73
2024-02-26T18:44:41.544Z,7.03
2024-02-26T18:47:08.496Z,7.03
2024-02-26T18:49:40.369Z,7.37
2024-02-26T18:52:10.116Z,8.30
2024-02-26T18:54:39.214Z,8.87
2024-02-26T18:57:07.063Z,9.00
2024-02-26T18:59:34.270Z,8.70
2024-02-26T19:02:00.976Z,7.83
2024-02-26T19:04:31.381Z,9.10
2024-02-26T19:06:58.625Z,9.57
2024-02-26T19:09:25.367Z,8.50
2024-02-26T19:11:54.075Z,9.50
2024-02-26T19:14:20.764Z,8.73
2024-02-26T19:16:47.720Z,8.93
2024-02-26T19:19:15.103Z,8.63
2024-02-26T19:21:43.278Z,8.37
2024-02-26T19:24:17.054Z,8.80
2024-02-26T19:26:44.066Z,8.80
2024-02-26T19:29:10.912Z,8.40
2024-02-26T19:31:38.049Z,8.13
2024-02-26T19:34:07.078Z,9.67
2024-02-26T19:36:34.162Z,8.80
2024-02-26T19:39:01.089Z,8.50
2024-02-26T19:41:33.800Z,9.10
2024-02-26T19:44:00.756Z,9.10
2024-02-26T19:46:27.810Z,9.70
2024-02-26T19:48:58.504Z,9.07
2024-02-26T19:51:44.758Z,9.10
2024-02-26T19:54:12.206Z,8.87
2024-02-26T19:56:39.113Z,9.17
2024-02-26T19:59:08.918Z,9.20
2024-02-26T20:01:37.404Z,9.20
2024-02-26T20:04:04.635Z,9.10
2024-02-26T20:06:33.047Z,9.90
2024-02-26T20:08:59.862Z,9.77
2024-02-26T20:11:26.801Z,9.80
2024-02-26T20:13:54.729Z,9.10
2024-02-26T20:16:21.568Z,10.10
2024-02-26T20:18:49.495Z,11.27
2024-02-26T20:21:32.713Z,10.23
2024-02-26T20:23:59.842Z,10.80
2024-02-26T20:26:28.220Z,11.10
2024-02-26T20:28:55.245Z,10.27
2024-02-26T20:31:25.079Z,11.00
2024-02-26T20:33:54.121Z,11.07
2024-02-26T20:36:22.352Z,11.03
2024-02-26T20:38:54.582Z,11.77
2024-02-26T20:41:23.850Z,11.53
2024-02-26T20:43:50.805Z,11.87
2024-02-26T20:46:20.736Z,12.10
2024-02-26T20:48:47.763Z,11.93
2024-02-26T20:51:17.667Z,12.57
2024-02-26T20:53:47.409Z,13.03
2024-02-26T20:56:14.367Z,13.27
2024-02-26T20:58:41.428Z,13.20
2024-02-26T21:01:12.165Z,12.33
2024-02-26T21:03:41.552Z,12.70
2024-02-26T21:06:08.964Z,13.10
2024-02-26T21:08:40.402Z,13.37
2024-02-26T21:11:07.815Z,13.23
2024-02-26T21:13:39.406Z,13.43
2024-02-26T21:16:13.935Z,14.30
2024-02-26T21:18:44.571Z,14.40
2024-02-26T21:21:14.704Z,14.67
2024-02-26T21:23:41.673Z,14.50
2024-02-26T21:26:09.980Z,14.10
2024-02-26T21:28:37.686Z,15.70
2024-02-26T21:31:06.471Z,15.20
2024-02-26T21:33:33.736Z,15.50
2024-02-26T21:36:02.522Z,15.77
2024-02-26T21:38:36.047Z,16.20
2024-02-26T21:41:09.757Z,15.60
2024-02-26T21:43:39.005Z,17.13
2024-02-26T21:46:09.277Z,16.97
2024-02-26T21:48:39.462Z,16.00
2024-02-26T21:51:07.030Z,16.13
2024-02-26T21:53:33.784Z,16.07
2024-02-26T21:56:01.025Z,16.97
2024-02-26T21:58:27.753Z,16.57
2024-02-26T22:00:54.965Z,17.37
2024-02-26T22:03:21.914Z,17.53
2024-02-26T22:05:51.919Z,17.00
2024-02-26T22:08:18.813Z,17.83
2024-02-26T22:10:46.896Z,16.60
2024-02-26T22:13:13.623Z,18.23
2024-02-26T22:15:40.680Z,18.13
2024-02-26T22:18:07.523Z,18.40
2024-02-26T22:20:34.907Z,18.27
2024-02-26T22:23:01.558Z,18.47
2024-02-26T22:25:29.549Z,18.10
2024-02-26T22:27:56.295Z,18.07
2024-02-26T22:30:23.064Z,18.50
2024-02-26T22:32:49.822Z,18.60
2024-02-26T22:35:16.683Z,19.53
2024-02-26T22:37:43.379Z,18.13
2024-02-26T22:40:10.471Z,18.63
2024-02-26T22:42:39.238Z,18.83
2024-02-26T22:45:07.246Z,20.50
2024-02-26T22:47:35.829Z,19.20
2024-02-26T22:50:05.156Z,19.63
2024-02-26T22:52:32.128Z,18.63
2024-02-26T22:54:58.934Z,19.47
2024-02-26T22:57:25.808Z,20.17
2024-02-26T22:59:52.602Z,19.07
2024-02-26T23:02:19.694Z,20.43
2024-02-26T23:04:47.013Z,19.13
2024-02-26T23:07:13.894Z,19.87
2024-02-26T23:09:40.990Z,18.93
2024-02-26T23:12:08.119Z,19.57
2024-02-26T23:14:34.866Z,19.43
2024-02-26T23:17:01.606Z,19.53
2024-02-26T23:19:28.448Z,20.10
2024-02-26T23:21:55.195Z,19.83
2024-02-26T23:24:22.481Z,19.53
2024-02-26T23:26:49.209Z,19.23
2024-02-26T23:29:15.982Z,19.20
2024-02-26T23:31:43.272Z,19.17
2024-02-26T23:34:10.126Z,19.53
2024-02-26T23:36:40.848Z,19.53
2024-02-26T23:39:08.023Z,18.53
2024-02-26T23:41:34.838Z,20.03
2024-02-26T23:44:01.578Z,19.53
2024-02-26T23:46:36.536Z,19.63
2024-02-26T23:49:03.463Z,17.93
2024-02-26T23:51:30.169Z,20.00
2024-02-26T23:53:56.994Z,18.50
2024-02-26T23:56:24.047Z,17.47
2024-02-26T23:58:50.703Z,18.97
